Allen, Louisiana
Current Conditions -  °F | °C
As of 2:35 PM on Thursday 29 Jan 2015 (Local Time) from KIER Reporting Station
Scattered Clouds Scattered Clouds  
Wind Chill: 76°   Ceiling: Unl
Heat Index: 78°   Visibility: 10mi
Dew Point: 53°   Wind: 13mph
Humidity: 44%   Direction: 300°WNW
Pressure: 30.16"   Gusts: 16mph
Location:  31.8112°N, 93.3051°W
Report Text: KIER 292035Z AUTO 30011G14KT 10SM SCT110 25/12 A3016 RMK AO2 T02450116
Loading
Personal Weather Stations






























Interactive Weather Map New forecast layout! Learn more

10-Day Weather Forecast

Advertisements
Track Severe Weather on mobile